sensor_id;sensor_type;location;lat;lon;timestamp;temperature;humidity
77969;DHT22;67161;0.000;0.000;2023-01-24T00:01:06;15.90;43.50
77969;DHT22;67161;0.000;0.000;2023-01-24T00:03:32;16.00;43.60
77969;DHT22;67161;0.000;0.000;2023-01-24T00:05:57;15.90;43.50
77969;DHT22;67161;0.000;0.000;2023-01-24T00:08:23;16.00;43.50
77969;DHT22;67161;0.000;0.000;2023-01-24T00:10:57;16.00;43.50
77969;DHT22;67161;0.000;0.000;2023-01-24T00:13:23;16.00;43.60
77969;DHT22;67161;0.000;0.000;2023-01-24T00:15:49;16.00;43.50
77969;DHT22;67161;0.000;0.000;2023-01-24T00:18:14;16.00;43.50
77969;DHT22;67161;0.000;0.000;2023-01-24T00:20:40;16.00;43.50
77969;DHT22;67161;0.000;0.000;2023-01-24T00:23:05;16.00;43.50
77969;DHT22;67161;0.000;0.000;2023-01-24T00:25:31;16.00;43.50
77969;DHT22;67161;0.000;0.000;2023-01-24T00:27:57;16.00;43.50
77969;DHT22;67161;0.000;0.000;2023-01-24T00:30:22;16.00;43.50
77969;DHT22;67161;0.000;0.000;2023-01-24T00:32:48;16.00;43.50
77969;DHT22;67161;0.000;0.000;2023-01-24T00:35:13;16.00;43.50
77969;DHT22;67161;0.000;0.000;2023-01-24T00:37:39;16.00;43.50
77969;DHT22;67161;0.000;0.000;2023-01-24T00:40:06;16.00;43.50
77969;DHT22;67161;0.000;0.000;2023-01-24T00:42:32;16.00;43.50
77969;DHT22;67161;0.000;0.000;2023-01-24T00:44:57;16.00;43.40
77969;DHT22;67161;0.000;0.000;2023-01-24T00:47:24;16.00;43.40
77969;DHT22;67161;0.000;0.000;2023-01-24T00:49:50;16.00;43.50
77969;DHT22;67161;0.000;0.000;2023-01-24T00:52:16;16.00;43.50
77969;DHT22;67161;0.000;0.000;2023-01-24T00:54:41;16.00;43.40
77969;DHT22;67161;0.000;0.000;2023-01-24T00:57:07;16.00;43.40
77969;DHT22;67161;0.000;0.000;2023-01-24T00:59:32;16.00;43.40
77969;DHT22;67161;0.000;0.000;2023-01-24T01:01:58;16.00;43.40
77969;DHT22;67161;0.000;0.000;2023-01-24T01:04:24;16.00;43.40
77969;DHT22;67161;0.000;0.000;2023-01-24T01:06:49;16.00;43.40
77969;DHT22;67161;0.000;0.000;2023-01-24T01:09:15;16.00;43.40
77969;DHT22;67161;0.000;0.000;2023-01-24T01:11:40;16.00;43.40
77969;DHT22;67161;0.000;0.000;2023-01-24T01:14:10;16.00;43.00
77969;DHT22;67161;0.000;0.000;2023-01-24T01:16:36;16.00;43.40
77969;DHT22;67161;0.000;0.000;2023-01-24T01:19:04;16.00;43.40
77969;DHT22;67161;0.000;0.000;2023-01-24T01:21:30;16.00;43.40
77969;DHT22;67161;0.000;0.000;2023-01-24T01:23:56;16.00;43.40
77969;DHT22;67161;0.000;0.000;2023-01-24T01:26:22;16.00;43.40
77969;DHT22;67161;0.000;0.000;2023-01-24T01:28:48;16.00;43.40
77969;DHT22;67161;0.000;0.000;2023-01-24T01:31:14;16.00;43.40
77969;DHT22;67161;0.000;0.000;2023-01-24T01:33:41;16.00;43.40
77969;DHT22;67161;0.000;0.000;2023-01-24T01:36:07;16.00;43.40
77969;DHT22;67161;0.000;0.000;2023-01-24T01:38:33;16.00;43.40
77969;DHT22;67161;0.000;0.000;2023-01-24T01:40:59;16.00;43.40
77969;DHT22;67161;0.000;0.000;2023-01-24T01:43:27;16.00;43.40
77969;DHT22;67161;0.000;0.000;2023-01-24T01:45:58;16.00;43.40
77969;DHT22;67161;0.000;0.000;2023-01-24T01:48:42;16.00;43.50
77969;DHT22;67161;0.000;0.000;2023-01-24T01:51:22;16.00;43.40
77969;DHT22;67161;0.000;0.000;2023-01-24T01:54:09;16.00;43.40
77969;DHT22;67161;0.000;0.000;2023-01-24T01:59:13;16.00;44.40
77969;DHT22;67161;0.000;0.000;2023-01-24T02:01:41;16.00;43.50
77969;DHT22;67161;0.000;0.000;2023-01-24T02:04:17;16.00;43.50
77969;DHT22;67161;0.000;0.000;2023-01-24T02:09:38;16.00;43.50
77969;DHT22;67161;0.000;0.000;2023-01-24T02:12:10;16.00;43.40
77969;DHT22;67161;0.000;0.000;2023-01-24T02:14:37;16.00;43.40
77969;DHT22;67161;0.000;0.000;2023-01-24T02:17:22;16.00;43.50
77969;DHT22;67161;0.000;0.000;2023-01-24T02:25:16;16.10;43.50
77969;DHT22;67161;0.000;0.000;2023-01-24T02:27:46;16.10;43.50
77969;DHT22;67161;0.000;0.000;2023-01-24T02:30:12;16.10;43.50
77969;DHT22;67161;0.000;0.000;2023-01-24T02:32:38;16.10;43.50
77969;DHT22;67161;0.000;0.000;2023-01-24T02:35:04;16.10;43.50
77969;DHT22;67161;0.000;0.000;2023-01-24T02:37:30;16.10;43.50
77969;DHT22;67161;0.000;0.000;2023-01-24T02:40:07;16.10;43.50
77969;DHT22;67161;0.000;0.000;2023-01-24T02:42:35;16.10;43.60
77969;DHT22;67161;0.000;0.000;2023-01-24T02:45:13;16.10;43.60
77969;DHT22;67161;0.000;0.000;2023-01-24T02:47:44;16.10;43.50
77969;DHT22;67161;0.000;0.000;2023-01-24T02:50:11;16.10;43.50
77969;DHT22;67161;0.000;0.000;2023-01-24T02:52:36;16.10;43.50
77969;DHT22;67161;0.000;0.000;2023-01-24T02:55:21;16.10;43.50
77969;DHT22;67161;0.000;0.000;2023-01-24T02:57:46;16.10;43.50
77969;DHT22;67161;0.000;0.000;2023-01-24T03:00:36;16.10;43.60
77969;DHT22;67161;0.000;0.000;2023-01-24T03:03:01;16.10;43.60
77969;DHT22;67161;0.000;0.000;2023-01-24T03:05:29;16.10;43.50
77969;DHT22;67161;0.000;0.000;2023-01-24T03:08:08;16.10;43.40
77969;DHT22;67161;0.000;0.000;2023-01-24T03:10:34;16.10;43.50
77969;DHT22;67161;0.000;0.000;2023-01-24T03:13:00;16.10;44.40
77969;DHT22;67161;0.000;0.000;2023-01-24T03:15:45;16.10;43.50
77969;DHT22;67161;0.000;0.000;2023-01-24T03:18:29;16.10;43.50
77969;DHT22;67161;0.000;0.000;2023-01-24T03:21:13;16.10;43.50
77969;DHT22;67161;0.000;0.000;2023-01-24T03:23:57;16.10;43.50
77969;DHT22;67161;0.000;0.000;2023-01-24T03:26:41;16.10;43.60
77969;DHT22;67161;0.000;0.000;2023-01-24T03:29:25;16.10;43.50
77969;DHT22;67161;0.000;0.000;2023-01-24T03:32:09;16.10;43.50
77969;DHT22;67161;0.000;0.000;2023-01-24T03:34:53;16.10;43.50
77969;DHT22;67161;0.000;0.000;2023-01-24T03:37:21;16.10;43.50
77969;DHT22;67161;0.000;0.000;2023-01-24T03:40:10;16.20;43.50
77969;DHT22;67161;0.000;0.000;2023-01-24T03:42:36;16.10;43.40
77969;DHT22;67161;0.000;0.000;2023-01-24T03:45:17;16.10;43.40
77969;DHT22;67161;0.000;0.000;2023-01-24T03:47:49;16.10;43.40
77969;DHT22;67161;0.000;0.000;2023-01-24T03:50:26;16.10;43.40
77969;DHT22;67161;0.000;0.000;2023-01-24T03:53:11;16.10;43.40
77969;DHT22;67161;0.000;0.000;2023-01-24T03:55:37;16.10;43.40
77969;DHT22;67161;0.000;0.000;2023-01-24T03:58:04;16.10;43.40
77969;DHT22;67161;0.000;0.000;2023-01-24T04:00:30;16.10;43.40
77969;DHT22;67161;0.000;0.000;2023-01-24T04:02:56;16.10;43.40
77969;DHT22;67161;0.000;0.000;2023-01-24T04:05:21;16.10;43.40
77969;DHT22;67161;0.000;0.000;2023-01-24T04:07:47;16.10;43.40
77969;DHT22;67161;0.000;0.000;2023-01-24T04:10:13;16.10;43.40
77969;DHT22;67161;0.000;0.000;2023-01-24T04:12:40;16.10;43.40
77969;DHT22;67161;0.000;0.000;2023-01-24T04:15:06;16.10;43.40
77969;DHT22;67161;0.000;0.000;2023-01-24T04:17:32;16.10;43.40
77969;DHT22;67161;0.000;0.000;2023-01-24T04:19:58;16.10;43.30
77969;DHT22;67161;0.000;0.000;2023-01-24T04:22:23;16.10;43.40
77969;DHT22;67161;0.000;0.000;2023-01-24T04:24:49;16.10;43.30
77969;DHT22;67161;0.000;0.000;2023-01-24T04:27:15;16.10;43.30
77969;DHT22;67161;0.000;0.000;2023-01-24T04:29:40;16.10;43.30
77969;DHT22;67161;0.000;0.000;2023-01-24T04:32:06;16.10;43.30
77969;DHT22;67161;0.000;0.000;2023-01-24T04:34:32;16.10;43.30
77969;DHT22;67161;0.000;0.000;2023-01-24T04:36:58;16.10;43.30
77969;DHT22;67161;0.000;0.000;2023-01-24T04:39:23;16.10;43.30
77969;DHT22;67161;0.000;0.000;2023-01-24T04:41:49;16.10;43.30
77969;DHT22;67161;0.000;0.000;2023-01-24T04:44:14;16.20;43.30
77969;DHT22;67161;0.000;0.000;2023-01-24T04:46:40;16.10;43.20
77969;DHT22;67161;0.000;0.000;2023-01-24T04:49:06;16.10;43.10
77969;DHT22;67161;0.000;0.000;2023-01-24T04:51:31;16.10;43.10
77969;DHT22;67161;0.000;0.000;2023-01-24T04:53:57;16.10;44.10
77969;DHT22;67161;0.000;0.000;2023-01-24T04:56:23;16.10;43.10
77969;DHT22;67161;0.000;0.000;2023-01-24T04:58:48;16.20;43.20
77969;DHT22;67161;0.000;0.000;2023-01-24T05:01:14;16.10;43.10
77969;DHT22;67161;0.000;0.000;2023-01-24T05:03:39;16.10;43.10
77969;DHT22;67161;0.000;0.000;2023-01-24T05:06:05;16.20;43.10
77969;DHT22;67161;0.000;0.000;2023-01-24T05:08:30;16.20;43.10
77969;DHT22;67161;0.000;0.000;2023-01-24T05:11:01;16.10;43.00
77969;DHT22;67161;0.000;0.000;2023-01-24T05:13:27;16.10;43.00
77969;DHT22;67161;0.000;0.000;2023-01-24T05:15:52;16.10;43.00
77969;DHT22;67161;0.000;0.000;2023-01-24T05:18:18;16.10;42.90
77969;DHT22;67161;0.000;0.000;2023-01-24T05:20:44;16.10;42.90
77969;DHT22;67161;0.000;0.000;2023-01-24T05:23:10;16.10;42.80
77969;DHT22;67161;0.000;0.000;2023-01-24T05:25:35;16.10;42.80
77969;DHT22;67161;0.000;0.000;2023-01-24T05:28:01;16.10;42.80
77969;DHT22;67161;0.000;0.000;2023-01-24T05:30:27;16.10;42.90
77969;DHT22;67161;0.000;0.000;2023-01-24T05:32:56;16.10;42.80
77969;DHT22;67161;0.000;0.000;2023-01-24T05:35:22;16.10;42.80
77969;DHT22;67161;0.000;0.000;2023-01-24T05:37:48;16.10;42.80
77969;DHT22;67161;0.000;0.000;2023-01-24T05:40:14;16.10;42.80
77969;DHT22;67161;0.000;0.000;2023-01-24T05:42:40;16.10;42.70
77969;DHT22;67161;0.000;0.000;2023-01-24T05:45:08;16.10;42.70
77969;DHT22;67161;0.000;0.000;2023-01-24T05:47:33;16.10;42.60
77969;DHT22;67161;0.000;0.000;2023-01-24T05:49:59;16.10;42.60
77969;DHT22;67161;0.000;0.000;2023-01-24T05:52:25;16.00;42.50
77969;DHT22;67161;0.000;0.000;2023-01-24T05:54:51;16.00;42.50
77969;DHT22;67161;0.000;0.000;2023-01-24T05:57:17;16.00;42.50
77969;DHT22;67161;0.000;0.000;2023-01-24T05:59:42;16.00;42.40
77969;DHT22;67161;0.000;0.000;2023-01-24T06:02:08;16.10;42.40
77969;DHT22;67161;0.000;0.000;2023-01-24T06:04:33;16.00;42.30
77969;DHT22;67161;0.000;0.000;2023-01-24T06:06:59;16.00;42.30
77969;DHT22;67161;0.000;0.000;2023-01-24T06:09:25;16.00;42.30
77969;DHT22;67161;0.000;0.000;2023-01-24T06:11:50;16.00;42.20
77969;DHT22;67161;0.000;0.000;2023-01-24T06:14:16;16.00;42.20
77969;DHT22;67161;0.000;0.000;2023-01-24T06:16:43;16.00;42.20
77969;DHT22;67161;0.000;0.000;2023-01-24T06:19:13;16.00;42.20
77969;DHT22;67161;0.000;0.000;2023-01-24T06:21:48;16.10;42.20
77969;DHT22;67161;0.000;0.000;2023-01-24T06:24:20;16.10;42.20
77969;DHT22;67161;0.000;0.000;2023-01-24T06:26:47;16.00;42.20
77969;DHT22;67161;0.000;0.000;2023-01-24T06:29:15;16.00;42.20
77969;DHT22;67161;0.000;0.000;2023-01-24T06:37:21;16.00;42.10
77969;DHT22;67161;0.000;0.000;2023-01-24T06:39:51;16.00;42.10
77969;DHT22;67161;0.000;0.000;2023-01-24T06:42:21;16.00;42.10
77969;DHT22;67161;0.000;0.000;2023-01-24T06:44:47;16.00;42.10
77969;DHT22;67161;0.000;0.000;2023-01-24T06:47:14;16.00;43.10
77969;DHT22;67161;0.000;0.000;2023-01-24T06:49:41;16.00;42.10
77969;DHT22;67161;0.000;0.000;2023-01-24T06:52:07;16.00;42.10
77969;DHT22;67161;0.000;0.000;2023-01-24T06:54:34;16.00;42.00
77969;DHT22;67161;0.000;0.000;2023-01-24T06:57:00;16.00;43.00
77969;DHT22;67161;0.000;0.000;2023-01-24T06:59:26;16.00;42.10
77969;DHT22;67161;0.000;0.000;2023-01-24T07:01:52;16.00;42.00
77969;DHT22;67161;0.000;0.000;2023-01-24T07:04:18;16.00;42.00
77969;DHT22;67161;0.000;0.000;2023-01-24T07:06:44;16.00;42.00
77969;DHT22;67161;0.000;0.000;2023-01-24T07:09:09;16.00;41.90
77969;DHT22;67161;0.000;0.000;2023-01-24T07:11:35;16.00;41.90
77969;DHT22;67161;0.000;0.000;2023-01-24T07:14:01;16.00;41.90
77969;DHT22;67161;0.000;0.000;2023-01-24T07:16:27;16.00;41.90
77969;DHT22;67161;0.000;0.000;2023-01-24T07:18:53;16.00;41.90
77969;DHT22;67161;0.000;0.000;2023-01-24T07:21:19;16.00;42.00
77969;DHT22;67161;0.000;0.000;2023-01-24T07:23:47;16.00;41.90
77969;DHT22;67161;0.000;0.000;2023-01-24T07:26:13;16.00;41.90
77969;DHT22;67161;0.000;0.000;2023-01-24T07:28:39;16.00;41.90
77969;DHT22;67161;0.000;0.000;2023-01-24T07:31:06;16.00;41.90
77969;DHT22;67161;0.000;0.000;2023-01-24T07:33:31;16.00;41.90
77969;DHT22;67161;0.000;0.000;2023-01-24T07:35:57;16.00;41.90
77969;DHT22;67161;0.000;0.000;2023-01-24T07:38:23;16.00;41.90
77969;DHT22;67161;0.000;0.000;2023-01-24T07:40:49;16.00;41.90
77969;DHT22;67161;0.000;0.000;2023-01-24T07:43:14;16.00;41.90
77969;DHT22;67161;0.000;0.000;2023-01-24T07:45:40;16.00;41.90
77969;DHT22;67161;0.000;0.000;2023-01-24T07:48:06;16.00;41.90
77969;DHT22;67161;0.000;0.000;2023-01-24T07:50:35;16.00;41.80
77969;DHT22;67161;0.000;0.000;2023-01-24T07:53:01;16.00;41.80
77969;DHT22;67161;0.000;0.000;2023-01-24T07:55:27;16.00;41.80
77969;DHT22;67161;0.000;0.000;2023-01-24T07:57:58;16.00;41.80
77969;DHT22;67161;0.000;0.000;2023-01-24T08:00:23;16.00;41.80
77969;DHT22;67161;0.000;0.000;2023-01-24T08:02:49;16.00;41.90
77969;DHT22;67161;0.000;0.000;2023-01-24T08:05:15;16.00;41.80
77969;DHT22;67161;0.000;0.000;2023-01-24T08:07:41;16.00;41.90
77969;DHT22;67161;0.000;0.000;2023-01-24T08:10:09;16.00;41.90
77969;DHT22;67161;0.000;0.000;2023-01-24T08:12:34;16.00;41.90
77969;DHT22;67161;0.000;0.000;2023-01-24T08:15:00;16.00;41.90
77969;DHT22;67161;0.000;0.000;2023-01-24T08:17:26;16.00;41.90
77969;DHT22;67161;0.000;0.000;2023-01-24T08:19:51;16.00;41.90
77969;DHT22;67161;0.000;0.000;2023-01-24T08:22:17;16.00;41.90
77969;DHT22;67161;0.000;0.000;2023-01-24T08:24:43;16.00;41.90
77969;DHT22;67161;0.000;0.000;2023-01-24T08:27:08;16.00;42.30
77969;DHT22;67161;0.000;0.000;2023-01-24T08:29:34;16.00;42.40
77969;DHT22;67161;0.000;0.000;2023-01-24T08:31:59;16.00;42.50
77969;DHT22;67161;0.000;0.000;2023-01-24T08:34:25;16.10;42.60
77969;DHT22;67161;0.000;0.000;2023-01-24T08:36:51;16.10;42.50
77969;DHT22;67161;0.000;0.000;2023-01-24T08:39:16;16.10;42.60
77969;DHT22;67161;0.000;0.000;2023-01-24T08:41:42;16.10;42.60
77969;DHT22;67161;0.000;0.000;2023-01-24T08:44:13;16.10;42.60
77969;DHT22;67161;0.000;0.000;2023-01-24T08:46:39;16.10;42.60
77969;DHT22;67161;0.000;0.000;2023-01-24T08:49:05;16.10;42.60
77969;DHT22;67161;0.000;0.000;2023-01-24T08:51:31;16.10;42.50
77969;DHT22;67161;0.000;0.000;2023-01-24T08:53:56;16.10;42.60
77969;DHT22;67161;0.000;0.000;2023-01-24T08:56:22;16.10;42.60
77969;DHT22;67161;0.000;0.000;2023-01-24T08:58:48;16.10;42.60
77969;DHT22;67161;0.000;0.000;2023-01-24T09:01:13;16.10;42.60
77969;DHT22;67161;0.000;0.000;2023-01-24T09:03:39;16.20;42.60
77969;DHT22;67161;0.000;0.000;2023-01-24T09:06:05;16.10;42.60
77969;DHT22;67161;0.000;0.000;2023-01-24T09:08:31;16.10;42.60
77969;DHT22;67161;0.000;0.000;2023-01-24T09:11:00;16.10;42.50
77969;DHT22;67161;0.000;0.000;2023-01-24T09:13:27;16.10;42.50
77969;DHT22;67161;0.000;0.000;2023-01-24T09:15:52;16.10;42.50
77969;DHT22;67161;0.000;0.000;2023-01-24T09:18:18;16.10;42.50
77969;DHT22;67161;0.000;0.000;2023-01-24T09:20:44;16.10;42.50
77969;DHT22;67161;0.000;0.000;2023-01-24T09:23:13;16.10;42.50
77969;DHT22;67161;0.000;0.000;2023-01-24T09:25:49;16.10;42.40
77969;DHT22;67161;0.000;0.000;2023-01-24T09:28:15;16.10;42.50
77969;DHT22;67161;0.000;0.000;2023-01-24T09:30:43;16.10;42.50
77969;DHT22;67161;0.000;0.000;2023-01-24T09:33:09;16.10;42.50
77969;DHT22;67161;0.000;0.000;2023-01-24T09:35:34;16.10;42.50
77969;DHT22;67161;0.000;0.000;2023-01-24T09:38:00;16.10;42.50
77969;DHT22;67161;0.000;0.000;2023-01-24T09:40:30;16.00;42.50
77969;DHT22;67161;0.000;0.000;2023-01-24T09:43:06;16.00;42.50
77969;DHT22;67161;0.000;0.000;2023-01-24T09:45:45;16.00;42.50
77969;DHT22;67161;0.000;0.000;2023-01-24T09:48:15;16.00;42.50
77969;DHT22;67161;0.000;0.000;2023-01-24T09:50:52;16.00;42.50
77969;DHT22;67161;0.000;0.000;2023-01-24T09:53:30;16.00;42.50
77969;DHT22;67161;0.000;0.000;2023-01-24T09:55:58;16.00;42.60
77969;DHT22;67161;0.000;0.000;2023-01-24T09:58:37;16.00;42.60
77969;DHT22;67161;0.000;0.000;2023-01-24T10:01:11;16.00;42.70
77969;DHT22;67161;0.000;0.000;2023-01-24T10:03:37;16.00;42.70
77969;DHT22;67161;0.000;0.000;2023-01-24T10:13:50;15.90;42.80
77969;DHT22;67161;0.000;0.000;2023-01-24T10:16:32;15.90;42.80
77969;DHT22;67161;0.000;0.000;2023-01-24T10:24:55;15.90;43.00
77969;DHT22;67161;0.000;0.000;2023-01-24T10:27:32;15.80;42.90
77969;DHT22;67161;0.000;0.000;2023-01-24T10:30:05;15.80;42.90
77969;DHT22;67161;0.000;0.000;2023-01-24T10:32:37;15.80;43.00
77969;DHT22;67161;0.000;0.000;2023-01-24T10:35:14;15.80;43.00
77969;DHT22;67161;0.000;0.000;2023-01-24T10:37:43;15.70;43.00
77969;DHT22;67161;0.000;0.000;2023-01-24T10:40:16;15.70;43.00
77969;DHT22;67161;0.000;0.000;2023-01-24T10:42:43;15.70;43.00
77969;DHT22;67161;0.000;0.000;2023-01-24T10:48:35;15.70;43.00
77969;DHT22;67161;0.000;0.000;2023-01-24T10:51:17;15.60;43.10
77969;DHT22;67161;0.000;0.000;2023-01-24T10:53:44;15.60;43.10
77969;DHT22;67161;0.000;0.000;2023-01-24T10:56:10;15.60;43.10
77969;DHT22;67161;0.000;0.000;2023-01-24T10:59:14;15.60;43.20
77969;DHT22;67161;0.000;0.000;2023-01-24T11:01:44;15.60;43.10
77969;DHT22;67161;0.000;0.000;2023-01-24T11:04:22;15.60;43.20
77969;DHT22;67161;0.000;0.000;2023-01-24T11:06:49;15.50;43.10
77969;DHT22;67161;0.000;0.000;2023-01-24T11:09:17;15.50;43.10
77969;DHT22;67161;0.000;0.000;2023-01-24T11:11:55;15.50;43.10
77969;DHT22;67161;0.000;0.000;2023-01-24T11:14:24;15.50;43.30
77969;DHT22;67161;0.000;0.000;2023-01-24T11:16:56;15.50;43.30
77969;DHT22;67161;0.000;0.000;2023-01-24T11:19:30;15.40;43.30
77969;DHT22;67161;0.000;0.000;2023-01-24T11:21:58;15.40;43.40
77969;DHT22;67161;0.000;0.000;2023-01-24T11:24:25;15.40;43.40
77969;DHT22;67161;0.000;0.000;2023-01-24T11:29:20;15.40;43.50
77969;DHT22;67161;0.000;0.000;2023-01-24T11:31:51;15.30;43.40
77969;DHT22;67161;0.000;0.000;2023-01-24T11:35:14;15.30;43.40
77969;DHT22;67161;0.000;0.000;2023-01-24T11:43:39;15.20;43.50
77969;DHT22;67161;0.000;0.000;2023-01-24T11:46:27;15.20;43.60
77969;DHT22;67161;0.000;0.000;2023-01-24T11:57:55;15.00;43.30
77969;DHT22;67161;0.000;0.000;2023-01-24T12:09:20;14.90;43.40
77969;DHT22;67161;0.000;0.000;2023-01-24T12:11:57;14.80;43.30
77969;DHT22;67161;0.000;0.000;2023-01-24T12:22:33;14.80;43.50
77969;DHT22;67161;0.000;0.000;2023-01-24T12:25:24;14.70;43.40
77969;DHT22;67161;0.000;0.000;2023-01-24T12:27:55;14.70;43.30
77969;DHT22;67161;0.000;0.000;2023-01-24T12:33:23;14.70;43.60
77969;DHT22;67161;0.000;0.000;2023-01-24T12:35:55;14.60;43.60
77969;DHT22;67161;0.000;0.000;2023-01-24T12:43:51;14.60;43.60
77969;DHT22;67161;0.000;0.000;2023-01-24T12:46:38;14.50;43.60
77969;DHT22;67161;0.000;0.000;2023-01-24T12:49:29;14.60;43.70
77969;DHT22;67161;0.000;0.000;2023-01-24T12:55:01;14.50;43.60
77969;DHT22;67161;0.000;0.000;2023-01-24T12:57:50;14.50;43.60
77969;DHT22;67161;0.000;0.000;2023-01-24T13:00:21;14.50;43.60
77969;DHT22;67161;0.000;0.000;2023-01-24T13:06:37;14.40;43.60
77969;DHT22;67161;0.000;0.000;2023-01-24T13:09:28;14.40;43.80
77969;DHT22;67161;0.000;0.000;2023-01-24T13:11:55;14.40;43.80
77969;DHT22;67161;0.000;0.000;2023-01-24T13:14:37;14.30;43.70
77969;DHT22;67161;0.000;0.000;2023-01-24T13:20:01;14.30;43.80
77969;DHT22;67161;0.000;0.000;2023-01-24T13:31:09;14.20;44.00
77969;DHT22;67161;0.000;0.000;2023-01-24T13:33:51;14.20;43.90
77969;DHT22;67161;0.000;0.000;2023-01-24T13:36:22;14.20;44.00
77969;DHT22;67161;0.000;0.000;2023-01-24T13:38:48;14.20;43.90
77969;DHT22;67161;0.000;0.000;2023-01-24T13:41:34;14.20;44.00
77969;DHT22;67161;0.000;0.000;2023-01-24T13:51:55;14.10;44.00
77969;DHT22;67161;0.000;0.000;2023-01-24T13:54:35;14.10;44.00
77969;DHT22;67161;0.000;0.000;2023-01-24T13:57:21;14.10;44.00
77969;DHT22;67161;0.000;0.000;2023-01-24T14:02:59;14.10;44.10
77969;DHT22;67161;0.000;0.000;2023-01-24T14:12:59;14.00;44.80
77969;DHT22;67161;0.000;0.000;2023-01-24T14:15:37;14.00;44.80
77969;DHT22;67161;0.000;0.000;2023-01-24T14:21:15;14.00;44.80
77969;DHT22;67161;0.000;0.000;2023-01-24T14:23:46;14.00;44.70
77969;DHT22;67161;0.000;0.000;2023-01-24T14:26:18;14.00;44.70
77969;DHT22;67161;0.000;0.000;2023-01-24T14:29:03;14.00;44.80
77969;DHT22;67161;0.000;0.000;2023-01-24T14:31:33;14.00;44.90
77969;DHT22;67161;0.000;0.000;2023-01-24T14:34:25;14.00;44.90
77969;DHT22;67161;0.000;0.000;2023-01-24T14:37:07;14.00;44.90
77969;DHT22;67161;0.000;0.000;2023-01-24T14:39:33;14.00;44.80
77969;DHT22;67161;0.000;0.000;2023-01-24T14:42:10;14.00;44.80
77969;DHT22;67161;0.000;0.000;2023-01-24T14:44:50;14.00;44.80
77969;DHT22;67161;0.000;0.000;2023-01-24T14:47:24;14.00;44.90
77969;DHT22;67161;0.000;0.000;2023-01-24T14:49:51;14.00;45.00
77969;DHT22;67161;0.000;0.000;2023-01-24T14:52:23;14.10;44.90
77969;DHT22;67161;0.000;0.000;2023-01-24T14:57:29;14.10;45.00
77969;DHT22;67161;0.000;0.000;2023-01-24T15:00:18;14.10;45.00
77969;DHT22;67161;0.000;0.000;2023-01-24T15:05:29;14.10;45.20
77969;DHT22;67161;0.000;0.000;2023-01-24T15:07:56;14.10;45.00
77969;DHT22;67161;0.000;0.000;2023-01-24T15:10:23;14.10;45.20
77969;DHT22;67161;0.000;0.000;2023-01-24T15:12:54;14.20;45.10
77969;DHT22;67161;0.000;0.000;2023-01-24T15:15:21;14.20;45.30
77969;DHT22;67161;0.000;0.000;2023-01-24T15:17:48;14.20;45.20
77969;DHT22;67161;0.000;0.000;2023-01-24T15:20:19;14.30;45.20
77969;DHT22;67161;0.000;0.000;2023-01-24T15:22:49;14.30;45.20
77969;DHT22;67161;0.000;0.000;2023-01-24T15:25:25;14.30;45.10
77969;DHT22;67161;0.000;0.000;2023-01-24T15:27:51;14.30;45.30
77969;DHT22;67161;0.000;0.000;2023-01-24T15:30:20;14.30;45.30
77969;DHT22;67161;0.000;0.000;2023-01-24T15:32:59;14.40;45.30
77969;DHT22;67161;0.000;0.000;2023-01-24T15:40:32;14.40;45.20
77969;DHT22;67161;0.000;0.000;2023-01-24T15:42:59;14.50;45.10
77969;DHT22;67161;0.000;0.000;2023-01-24T15:45:50;14.50;45.10
77969;DHT22;67161;0.000;0.000;2023-01-24T15:48:36;14.50;45.20
77969;DHT22;67161;0.000;0.000;2023-01-24T15:51:02;14.50;45.20
77969;DHT22;67161;0.000;0.000;2023-01-24T15:53:31;14.50;45.10
77969;DHT22;67161;0.000;0.000;2023-01-24T15:56:01;14.50;45.10
77969;DHT22;67161;0.000;0.000;2023-01-24T15:58:29;14.50;45.10
77969;DHT22;67161;0.000;0.000;2023-01-24T16:00:56;14.50;45.00
77969;DHT22;67161;0.000;0.000;2023-01-24T16:03:24;14.50;45.00
77969;DHT22;67161;0.000;0.000;2023-01-24T16:05:50;14.60;45.00
77969;DHT22;67161;0.000;0.000;2023-01-24T16:08:16;14.60;45.00
77969;DHT22;67161;0.000;0.000;2023-01-24T16:10:44;14.60;44.90
77969;DHT22;67161;0.000;0.000;2023-01-24T16:15:58;14.50;44.90
77969;DHT22;67161;0.000;0.000;2023-01-24T16:18:24;14.50;44.90
77969;DHT22;67161;0.000;0.000;2023-01-24T16:20:49;14.50;45.00
77969;DHT22;67161;0.000;0.000;2023-01-24T16:23:15;14.50;45.10
77969;DHT22;67161;0.000;0.000;2023-01-24T16:25:41;14.50;45.10
77969;DHT22;67161;0.000;0.000;2023-01-24T16:28:15;14.50;45.00
77969;DHT22;67161;0.000;0.000;2023-01-24T16:30:42;14.50;45.10
77969;DHT22;67161;0.000;0.000;2023-01-24T16:33:08;14.50;45.10
77969;DHT22;67161;0.000;0.000;2023-01-24T16:35:33;14.50;45.10
77969;DHT22;67161;0.000;0.000;2023-01-24T16:37:59;14.50;45.10
77969;DHT22;67161;0.000;0.000;2023-01-24T16:40:24;14.40;45.10
77969;DHT22;67161;0.000;0.000;2023-01-24T16:42:50;14.40;45.10
77969;DHT22;67161;0.000;0.000;2023-01-24T16:45:18;14.40;45.10
77969;DHT22;67161;0.000;0.000;2023-01-24T16:47:45;14.40;45.10
77969;DHT22;67161;0.000;0.000;2023-01-24T16:50:11;14.30;45.00
77969;DHT22;67161;0.000;0.000;2023-01-24T16:52:37;14.30;45.10
77969;DHT22;67161;0.000;0.000;2023-01-24T16:55:04;14.30;45.20
77969;DHT22;67161;0.000;0.000;2023-01-24T16:57:30;14.30;45.20
77969;DHT22;67161;0.000;0.000;2023-01-24T16:59:56;14.30;45.30
77969;DHT22;67161;0.000;0.000;2023-01-24T17:02:21;14.30;45.30
77969;DHT22;67161;0.000;0.000;2023-01-24T17:04:47;14.30;45.30
77969;DHT22;67161;0.000;0.000;2023-01-24T17:07:13;14.30;45.30
77969;DHT22;67161;0.000;0.000;2023-01-24T17:09:39;14.30;45.30
77969;DHT22;67161;0.000;0.000;2023-01-24T17:12:05;14.30;45.30
77969;DHT22;67161;0.000;0.000;2023-01-24T17:14:33;14.30;45.30
77969;DHT22;67161;0.000;0.000;2023-01-24T17:16:59;14.30;45.20
77969;DHT22;67161;0.000;0.000;2023-01-24T17:19:24;14.30;45.20
77969;DHT22;67161;0.000;0.000;2023-01-24T17:21:50;14.30;45.10
77969;DHT22;67161;0.000;0.000;2023-01-24T17:24:16;14.30;45.10
77969;DHT22;67161;0.000;0.000;2023-01-24T17:26:41;14.30;45.10
77969;DHT22;67161;0.000;0.000;2023-01-24T17:29:07;14.30;45.10
77969;DHT22;67161;0.000;0.000;2023-01-24T17:31:33;14.30;45.00
77969;DHT22;67161;0.000;0.000;2023-01-24T17:33:58;14.30;45.00
77969;DHT22;67161;0.000;0.000;2023-01-24T17:36:24;14.30;45.10
77969;DHT22;67161;0.000;0.000;2023-01-24T17:38:52;14.40;45.10
77969;DHT22;67161;0.000;0.000;2023-01-24T17:41:19;14.40;45.00
77969;DHT22;67161;0.000;0.000;2023-01-24T17:43:45;14.40;44.90
77969;DHT22;67161;0.000;0.000;2023-01-24T17:46:13;14.40;44.80
77969;DHT22;67161;0.000;0.000;2023-01-24T17:48:38;14.40;44.70
77969;DHT22;67161;0.000;0.000;2023-01-24T17:51:14;14.50;44.80
77969;DHT22;67161;0.000;0.000;2023-01-24T17:53:43;14.50;44.70
77969;DHT22;67161;0.000;0.000;2023-01-24T17:56:10;14.50;44.70
77969;DHT22;67161;0.000;0.000;2023-01-24T17:58:36;14.60;44.70
77969;DHT22;67161;0.000;0.000;2023-01-24T18:01:03;14.60;44.70
77969;DHT22;67161;0.000;0.000;2023-01-24T18:03:29;14.60;44.60
77969;DHT22;67161;0.000;0.000;2023-01-24T18:05:55;14.60;44.60
77969;DHT22;67161;0.000;0.000;2023-01-24T18:08:21;14.60;44.50